sensor_id;sensor_type;location;lat;lon;timestamp;P1;durP1;ratioP1;P2;durP2;ratioP2
6836;SDS011;3456;42.136;24.736;2023-07-09T20:31:17;9.30;;;3.60;;
6836;SDS011;3456;42.136;24.736;2023-07-09T20:51:21;6.07;;;3.50;;
6836;SDS011;3456;42.136;24.736;2023-07-09T20:53:50;8.97;;;3.80;;
6836;SDS011;3456;42.136;24.736;2023-07-09T20:56:19;7.97;;;3.50;;
6836;SDS011;3456;42.136;24.736;2023-07-09T20:58:48;5.87;;;3.90;;
6836;SDS011;3456;42.136;24.736;2023-07-09T21:01:17;5.53;;;3.40;;
6836;SDS011;3456;42.136;24.736;2023-07-09T21:03:46;6.90;;;3.60;;
6836;SDS011;3456;42.136;24.736;2023-07-09T21:06:17;5.80;;;3.43;;
6836;SDS011;3456;42.136;24.736;2023-07-09T21:08:48;5.67;;;3.57;;
6836;SDS011;3456;42.136;24.736;2023-07-09T21:11:17;7.60;;;3.60;;
6836;SDS011;3456;42.136;24.736;2023-07-09T21:13:46;4.60;;;3.80;;
6836;SDS011;3456;42.136;24.736;2023-07-09T21:16:16;7.37;;;3.80;;
6836;SDS011;3456;42.136;24.736;2023-07-09T21:18:47;6.27;;;3.70;;
6836;SDS011;3456;42.136;24.736;2023-07-09T21:21:19;6.00;;;3.90;;
6836;SDS011;3456;42.136;24.736;2023-07-09T21:23:47;5.40;;;3.20;;
6836;SDS011;3456;42.136;24.736;2023-07-09T21:26:16;4.80;;;3.70;;
6836;SDS011;3456;42.136;24.736;2023-07-09T21:28:46;7.23;;;3.60;;
6836;SDS011;3456;42.136;24.736;2023-07-09T21:31:17;4.53;;;3.80;;
6836;SDS011;3456;42.136;24.736;2023-07-09T21:33:48;4.27;;;3.70;;
6836;SDS011;3456;42.136;24.736;2023-07-09T21:36:19;4.10;;;3.63;;
6836;SDS011;3456;42.136;24.736;2023-07-09T21:38:48;7.20;;;3.43;;
6836;SDS011;3456;42.136;24.736;2023-07-09T21:41:19;12.07;;;4.00;;
6836;SDS011;3456;42.136;24.736;2023-07-09T21:43:47;5.73;;;3.73;;
6836;SDS011;3456;42.136;24.736;2023-07-09T21:46:20;8.57;;;4.23;;
6836;SDS011;3456;42.136;24.736;2023-07-09T21:48:54;9.17;;;4.03;;
6836;SDS011;3456;42.136;24.736;2023-07-09T21:51:29;6.23;;;3.70;;
6836;SDS011;3456;42.136;24.736;2023-07-09T21:53:58;5.40;;;3.93;;
6836;SDS011;3456;42.136;24.736;2023-07-09T21:56:34;9.70;;;3.73;;
6836;SDS011;3456;42.136;24.736;2023-07-09T21:59:02;4.70;;;3.63;;
6836;SDS011;3456;42.136;24.736;2023-07-09T22:01:31;10.00;;;3.83;;
6836;SDS011;3456;42.136;24.736;2023-07-09T22:04:04;6.57;;;3.50;;
6836;SDS011;3456;42.136;24.736;2023-07-09T22:06:45;6.87;;;3.47;;
6836;SDS011;3456;42.136;24.736;2023-07-09T22:09:13;4.53;;;3.17;;
6836;SDS011;3456;42.136;24.736;2023-07-09T22:11:43;4.93;;;3.47;;
6836;SDS011;3456;42.136;24.736;2023-07-09T22:14:16;7.93;;;3.83;;
6836;SDS011;3456;42.136;24.736;2023-07-09T22:16:48;7.73;;;3.40;;
6836;SDS011;3456;42.136;24.736;2023-07-09T22:19:18;6.03;;;3.37;;
6836;SDS011;3456;42.136;24.736;2023-07-09T22:21:50;5.10;;;3.43;;
6836;SDS011;3456;42.136;24.736;2023-07-09T22:24:19;8.47;;;3.20;;
6836;SDS011;3456;42.136;24.736;2023-07-09T22:26:48;4.40;;;3.27;;
6836;SDS011;3456;42.136;24.736;2023-07-09T22:29:17;7.23;;;3.27;;
6836;SDS011;3456;42.136;24.736;2023-07-09T22:31:46;6.00;;;3.43;;
6836;SDS011;3456;42.136;24.736;2023-07-09T22:34:17;7.27;;;3.57;;
6836;SDS011;3456;42.136;24.736;2023-07-09T22:36:47;4.73;;;3.60;;
6836;SDS011;3456;42.136;24.736;2023-07-09T22:39:19;4.13;;;3.43;;
6836;SDS011;3456;42.136;24.736;2023-07-09T22:41:49;9.80;;;3.80;;
6836;SDS011;3456;42.136;24.736;2023-07-09T22:44:17;4.93;;;3.67;;
6836;SDS011;3456;42.136;24.736;2023-07-09T22:46:46;6.43;;;3.83;;
6836;SDS011;3456;42.136;24.736;2023-07-09T22:49:15;5.00;;;3.57;;
6836;SDS011;3456;42.136;24.736;2023-07-09T22:51:53;7.60;;;4.17;;
6836;SDS011;3456;42.136;24.736;2023-07-09T22:54:24;10.33;;;3.90;;
6836;SDS011;3456;42.136;24.736;2023-07-09T22:56:53;7.83;;;4.07;;
6836;SDS011;3456;42.136;24.736;2023-07-09T22:59:23;6.40;;;4.10;;
6836;SDS011;3456;42.136;24.736;2023-07-09T23:01:52;7.17;;;4.00;;
6836;SDS011;3456;42.136;24.736;2023-07-09T23:04:20;6.63;;;4.27;;
6836;SDS011;3456;42.136;24.736;2023-07-09T23:06:54;7.33;;;4.23;;
6836;SDS011;3456;42.136;24.736;2023-07-09T23:09:23;8.60;;;3.90;;
6836;SDS011;3456;42.136;24.736;2023-07-09T23:11:52;4.60;;;3.80;;
6836;SDS011;3456;42.136;24.736;2023-07-09T23:14:24;6.33;;;4.40;;
6836;SDS011;3456;42.136;24.736;2023-07-09T23:17:08;4.80;;;4.07;;
6836;SDS011;3456;42.136;24.736;2023-07-09T23:19:40;4.50;;;3.73;;
6836;SDS011;3456;42.136;24.736;2023-07-09T23:22:13;9.13;;;4.20;;
6836;SDS011;3456;42.136;24.736;2023-07-09T23:24:48;6.40;;;4.27;;
6836;SDS011;3456;42.136;24.736;2023-07-09T23:30:22;5.70;;;3.90;;
6836;SDS011;3456;42.136;24.736;2023-07-09T23:32:53;8.80;;;4.07;;
6836;SDS011;3456;42.136;24.736;2023-07-09T23:35:24;6.83;;;4.33;;
6836;SDS011;3456;42.136;24.736;2023-07-09T23:37:56;9.47;;;4.53;;
6836;SDS011;3456;42.136;24.736;2023-07-09T23:40:25;7.50;;;4.60;;
6836;SDS011;3456;42.136;24.736;2023-07-09T23:46:08;5.63;;;4.00;;
6836;SDS011;3456;42.136;24.736;2023-07-09T23:48:39;5.80;;;4.23;;
6836;SDS011;3456;42.136;24.736;2023-07-09T23:51:11;5.17;;;3.80;;
6836;SDS011;3456;42.136;24.736;2023-07-09T23:53:43;5.87;;;4.07;;
6836;SDS011;3456;42.136;24.736;2023-07-09T23:56:12;7.13;;;4.53;;
6836;SDS011;3456;42.136;24.736;2023-07-09T23:58:44;9.07;;;4.30;;
